Airport ID:K0A0
Update Time (UTC):18/05/2021 08:07
Wind Speed (Knots):8
Wind Direction (Magnetic):310
Temperature (°C):16.2
Dew Point (°C):-3.8
Humidity (%):25.9
Altimeter (inHg):29.92
Density Altitude (Feet):05800
Visibility (Miles):10
Clouds (Hundreds of feet):CLR
Present Weather:
METAR:METAR K0A0 180805Z AUTO 31008KT 10SM CLR 16/M04 A2992 RMK AO2

The data displayed is for advisory purposes only and is not to be used for flight planning or operations.